createdAt,value
2022-11-15T00:02:00.785Z,1.70
2022-11-15T00:04:47.133Z,1.70
2022-11-15T00:07:54.598Z,1.90
2022-11-15T00:10:39.712Z,1.90
2022-11-15T00:13:25.782Z,2.00
2022-11-15T00:16:12.177Z,2.00
2022-11-15T00:18:59.430Z,2.00
2022-11-15T00:21:45.782Z,1.90
2022-11-15T00:24:32.078Z,1.80
2022-11-15T00:27:18.513Z,1.90
2022-11-15T00:30:04.973Z,2.00
2022-11-15T00:32:51.548Z,1.90
2022-11-15T00:35:38.008Z,1.90
2022-11-15T00:38:24.277Z,1.90
2022-11-15T00:41:10.538Z,1.60
2022-11-15T00:43:56.914Z,1.70
2022-11-15T00:46:43.122Z,1.80
2022-11-15T00:49:29.160Z,1.80
2022-11-15T00:52:15.038Z,1.90
2022-11-15T00:55:01.135Z,2.00
2022-11-15T00:57:48.085Z,2.00
2022-11-15T01:00:34.316Z,2.00
2022-11-15T01:03:20.549Z,2.00
2022-11-15T01:06:07.916Z,2.00
2022-11-15T01:08:53.928Z,1.90
2022-11-15T01:11:39.894Z,1.90
2022-11-15T01:14:25.937Z,1.90
2022-11-15T01:17:12.351Z,1.90
2022-11-15T01:19:58.782Z,1.90
2022-11-15T01:22:44.742Z,2.00
2022-11-15T01:25:30.808Z,2.00
2022-11-15T01:28:16.923Z,2.00
2022-11-15T01:31:04.904Z,1.80
2022-11-15T01:33:51.720Z,1.90
2022-11-15T01:36:38.062Z,1.40
2022-11-15T01:39:24.022Z,1.60
2022-11-15T01:42:16.529Z,1.70
2022-11-15T01:45:02.940Z,1.80
2022-11-15T01:47:54.932Z,1.70
2022-11-15T01:50:40.906Z,1.70
2022-11-15T01:53:28.368Z,1.40
2022-11-15T01:56:22.017Z,1.60
2022-11-15T01:59:09.902Z,1.50
2022-11-15T02:01:56.766Z,1.20
2022-11-15T02:04:46.178Z,1.50
2022-11-15T02:07:33.754Z,1.60
2022-11-15T02:10:23.384Z,1.70
2022-11-15T02:13:10.206Z,1.70
2022-11-15T02:16:08.382Z,1.80
2022-11-15T02:19:43.178Z,1.50
2022-11-15T02:23:06.683Z,1.70
2022-11-15T02:26:25.975Z,1.80
2022-11-15T02:29:22.997Z,1.80
2022-11-15T02:32:24.939Z,1.80
2022-11-15T02:35:26.202Z,1.80
2022-11-15T02:39:03.588Z,1.80
2022-11-15T02:42:34.502Z,1.70
2022-11-15T02:45:24.140Z,1.80
2022-11-15T02:48:11.509Z,1.70
2022-11-15T02:50:58.056Z,1.50
2022-11-15T02:53:45.015Z,1.10
2022-11-15T02:56:32.293Z,1.20
2022-11-15T02:59:46.016Z,1.40
2022-11-15T03:02:41.778Z,1.50
2022-11-15T03:05:40.370Z,1.60
2022-11-15T03:08:47.716Z,1.60
2022-11-15T03:11:41.669Z,1.40
2022-11-15T03:14:35.912Z,1.20
2022-11-15T03:17:57.407Z,1.40
2022-11-15T03:20:44.868Z,1.50
2022-11-15T03:23:33.037Z,1.50
2022-11-15T03:26:24.750Z,1.60
2022-11-15T03:29:16.652Z,1.20
2022-11-15T03:32:13.819Z,1.40
2022-11-15T03:35:04.380Z,1.50
2022-11-15T03:38:02.647Z,1.50
2022-11-15T03:41:05.305Z,1.60
2022-11-15T03:44:01.412Z,1.60
2022-11-15T03:47:03.470Z,1.60
2022-11-15T03:49:58.078Z,1.60
2022-11-15T03:52:47.677Z,1.60
2022-11-15T03:55:34.220Z,1.50
2022-11-15T03:58:20.888Z,1.70
2022-11-15T04:01:07.059Z,1.70
2022-11-15T04:03:53.699Z,1.70
2022-11-15T04:06:39.648Z,1.70
2022-11-15T04:09:25.673Z,1.70
2022-11-15T04:12:11.755Z,1.60
2022-11-15T04:15:08.880Z,1.40
2022-11-15T04:17:57.933Z,1.50
2022-11-15T04:21:03.027Z,1.40
2022-11-15T04:24:07.290Z,1.50
2022-11-15T04:26:53.524Z,1.50
2022-11-15T04:29:39.996Z,1.60
2022-11-15T04:32:26.311Z,1.60
2022-11-15T04:35:13.029Z,1.60
2022-11-15T04:38:00.091Z,1.50
2022-11-15T04:40:46.074Z,1.50
2022-11-15T04:43:32.608Z,1.40
2022-11-15T04:46:19.792Z,1.40
2022-11-15T04:49:06.084Z,1.40
2022-11-15T04:51:52.272Z,1.40
2022-11-15T04:54:38.649Z,1.40
2022-11-15T04:57:24.942Z,1.40
2022-11-15T05:00:14.054Z,1.40
2022-11-15T05:03:19.138Z,1.50
2022-11-15T05:06:06.308Z,1.40
2022-11-15T05:08:53.197Z,1.40
2022-11-15T05:11:40.095Z,1.40
2022-11-15T05:14:26.221Z,1.40
2022-11-15T05:17:12.319Z,1.40
2022-11-15T05:19:58.547Z,1.30
2022-11-15T05:22:44.901Z,1.30
2022-11-15T05:25:30.972Z,1.30
2022-11-15T05:28:17.101Z,1.40
2022-11-15T05:31:15.675Z,1.40
2022-11-15T05:34:03.234Z,1.40
2022-11-15T05:36:49.771Z,1.40
2022-11-15T05:39:36.141Z,1.40
2022-11-15T05:42:22.362Z,1.40
2022-11-15T05:45:09.919Z,1.40
2022-11-15T05:47:58.638Z,1.30
2022-11-15T05:50:48.248Z,1.30
2022-11-15T05:53:35.128Z,1.30
2022-11-15T05:56:22.100Z,1.40
2022-11-15T05:59:10.457Z,1.40
2022-11-15T06:01:56.601Z,1.40
2022-11-15T06:04:43.336Z,1.50
2022-11-15T06:07:31.112Z,1.60
2022-11-15T06:10:17.763Z,1.60
2022-11-15T06:13:05.944Z,1.70
2022-11-15T06:15:52.137Z,1.70
2022-11-15T06:18:39.103Z,1.70
2022-11-15T06:21:25.497Z,1.70
2022-11-15T06:24:12.262Z,1.80
2022-11-15T06:26:58.745Z,1.80
2022-11-15T06:29:45.240Z,1.80
2022-11-15T06:32:32.125Z,1.80
2022-11-15T06:35:19.052Z,1.90
2022-11-15T06:38:08.424Z,2.00
2022-11-15T06:40:54.369Z,2.00
2022-11-15T06:43:41.342Z,2.10
2022-11-15T06:46:28.090Z,2.10
2022-11-15T06:49:14.748Z,2.20
2022-11-15T06:52:01.400Z,2.20
2022-11-15T06:54:47.845Z,2.30
2022-11-15T06:57:34.162Z,2.40
2022-11-15T07:00:22.019Z,2.40
2022-11-15T07:03:08.034Z,2.60
2022-11-15T07:06:04.202Z,2.70
2022-11-15T07:08:53.396Z,2.70
2022-11-15T07:11:39.391Z,2.80
2022-11-15T07:14:26.182Z,2.90
2022-11-15T07:17:12.427Z,2.90
2022-11-15T07:19:58.749Z,2.80
2022-11-15T07:22:48.177Z,2.90
2022-11-15T07:25:34.881Z,3.00
2022-11-15T07:28:21.019Z,3.20
2022-11-15T07:31:09.536Z,3.50
2022-11-15T07:33:55.469Z,3.50
2022-11-15T07:36:41.583Z,3.60
2022-11-15T07:39:28.428Z,3.30
2022-11-15T07:42:33.243Z,3.60
2022-11-15T07:45:19.453Z,3.20
2022-11-15T07:48:06.631Z,3.20
2022-11-15T07:50:52.985Z,3.70
2022-11-15T07:53:39.423Z,3.80
2022-11-15T07:56:25.658Z,3.80
2022-11-15T07:59:11.625Z,4.00
2022-11-15T08:01:58.016Z,4.30
2022-11-15T08:04:45.340Z,4.60
2022-11-15T08:07:32.638Z,4.90
2022-11-15T08:10:20.319Z,5.00
2022-11-15T08:13:11.372Z,4.70
2022-11-15T08:16:01.665Z,5.40
2022-11-15T08:18:48.470Z,6.20
2022-11-15T08:21:34.788Z,6.80
2022-11-15T08:24:21.593Z,7.90
2022-11-15T08:27:16.203Z,9.00
2022-11-15T08:30:02.838Z,9.70
2022-11-15T08:32:50.260Z,12.30
2022-11-15T08:35:36.268Z,14.80
2022-11-15T08:38:22.452Z,11.70
2022-11-15T08:41:12.471Z,10.50
2022-11-15T08:43:58.442Z,10.40
2022-11-15T08:46:47.505Z,10.90
2022-11-15T08:49:33.560Z,10.10
2022-11-15T08:52:20.131Z,9.80
2022-11-15T08:55:07.739Z,8.40
2022-11-15T08:57:53.813Z,7.80
2022-11-15T09:00:40.315Z,8.10
2022-11-15T09:03:26.429Z,8.60
2022-11-15T09:06:13.521Z,9.10
2022-11-15T09:08:59.727Z,8.90
2022-11-15T09:11:47.629Z,8.80
2022-11-15T09:14:34.438Z,7.70
2022-11-15T09:20:26.865Z,8.60
2022-11-15T09:23:13.325Z,9.20
2022-11-15T09:26:02.356Z,9.50
2022-11-15T09:28:49.481Z,9.80
2022-11-15T09:31:35.407Z,10.90
2022-11-15T09:34:22.180Z,17.10
2022-11-15T09:37:08.596Z,21.60
2022-11-15T09:39:54.672Z,24.10
2022-11-15T09:43:01.825Z,26.10
2022-11-15T09:46:10.860Z,24.50
2022-11-15T09:49:09.763Z,26.30
2022-11-15T09:51:57.101Z,23.70
2022-11-15T09:57:17.369Z,24.20
2022-11-15T09:59:53.748Z,26.90
2022-11-15T10:02:39.088Z,28.40
2022-11-15T10:05:12.258Z,26.50
2022-11-15T10:08:10.792Z,28.90
2022-11-15T10:11:22.688Z,28.80
2022-11-15T10:13:48.869Z,30.30
2022-11-15T10:16:32.043Z,29.80
2022-11-15T10:19:14.514Z,28.90
2022-11-15T10:22:15.858Z,26.70
2022-11-15T10:24:47.145Z,24.30
2022-11-15T10:27:19.825Z,21.70
2022-11-15T10:29:49.705Z,19.30
2022-11-15T10:32:20.041Z,17.60
2022-11-15T10:34:50.091Z,18.00
2022-11-15T10:37:33.020Z,16.70
2022-11-15T10:40:18.706Z,17.00
2022-11-15T10:42:46.947Z,17.10
2022-11-15T10:45:30.620Z,16.00
2022-11-15T10:48:22.962Z,15.40
2022-11-15T10:50:52.941Z,14.90
2022-11-15T10:53:42.162Z,13.70
2022-11-15T10:56:16.843Z,13.00
2022-11-15T10:58:51.373Z,13.20
2022-11-15T11:01:23.013Z,13.40
2022-11-15T11:04:10.686Z,13.20
2022-11-15T11:07:00.448Z,12.80
2022-11-15T11:09:38.898Z,12.40
2022-11-15T11:12:11.080Z,12.10
2022-11-15T11:14:41.127Z,11.30
2022-11-15T11:17:23.003Z,11.30
2022-11-15T11:20:00.192Z,10.30
2022-11-15T11:22:44.534Z,10.40
2022-11-15T11:25:30.327Z,10.40
2022-11-15T11:28:25.601Z,10.20
2022-11-15T11:30:56.231Z,10.40
2022-11-15T11:33:40.177Z,9.80
2022-11-15T11:36:41.112Z,10.20
2022-11-15T11:39:39.287Z,10.40
2022-11-15T11:42:25.553Z,9.80
2022-11-15T11:45:20.815Z,10.10
2022-11-15T11:47:55.049Z,10.30
2022-11-15T11:50:28.290Z,10.50
2022-11-15T11:53:25.004Z,10.60
2022-11-15T11:56:00.322Z,10.40
2022-11-15T11:58:38.546Z,10.40
2022-11-15T12:01:12.743Z,10.30
2022-11-15T12:03:49.002Z,9.20
2022-11-15T12:06:39.030Z,9.50
2022-11-15T12:09:16.089Z,9.80
2022-11-15T12:11:56.761Z,9.80
2022-11-15T12:14:49.406Z,9.70
2022-11-15T12:17:22.014Z,9.80
2022-11-15T12:19:50.269Z,9.90
2022-11-15T12:22:23.074Z,9.70
2022-11-15T12:25:04.100Z,9.40
2022-11-15T12:27:38.771Z,9.20
2022-11-15T12:30:17.242Z,9.30
2022-11-15T12:32:58.244Z,9.60
2022-11-15T12:35:37.028Z,9.60
2022-11-15T12:38:05.757Z,9.00
2022-11-15T12:40:36.162Z,9.00
2022-11-15T12:43:09.811Z,9.00
2022-11-15T12:45:40.144Z,9.30
2022-11-15T12:48:17.463Z,9.30
2022-11-15T12:50:56.968Z,9.40
2022-11-15T12:53:25.437Z,9.40
2022-11-15T12:56:21.795Z,9.30
2022-11-15T12:58:51.471Z,9.40
2022-11-15T13:01:35.130Z,9.30
2022-11-15T13:04:30.760Z,9.40
2022-11-15T13:07:02.627Z,9.30
2022-11-15T13:09:33.582Z,9.40
2022-11-15T13:12:05.673Z,9.40
2022-11-15T13:14:47.026Z,9.50
2022-11-15T13:17:24.144Z,9.40
2022-11-15T13:20:18.137Z,9.40
2022-11-15T13:22:53.662Z,9.50
2022-11-15T13:25:40.020Z,9.50
2022-11-15T13:28:31.158Z,9.60
2022-11-15T13:31:28.298Z,9.40
2022-11-15T13:33:59.711Z,9.40
2022-11-15T13:36:32.012Z,9.20
2022-11-15T13:39:02.752Z,8.90
2022-11-15T13:41:33.895Z,8.60
2022-11-15T13:44:03.229Z,8.20
2022-11-15T13:46:34.061Z,8.60
2022-11-15T13:49:09.170Z,8.80
2022-11-15T13:51:41.829Z,8.60
2022-11-15T13:54:19.057Z,8.80
2022-11-15T13:56:57.423Z,8.70
2022-11-15T13:59:31.139Z,8.80
2022-11-15T14:02:04.816Z,8.70
2022-11-15T14:04:35.675Z,8.70
2022-11-15T14:07:03.996Z,8.50
2022-11-15T14:09:37.045Z,8.50
2022-11-15T14:12:26.308Z,8.50
2022-11-15T14:14:54.265Z,8.30
2022-11-15T14:17:35.994Z,8.20
2022-11-15T14:20:21.056Z,8.10
2022-11-15T14:23:01.022Z,8.10
2022-11-15T14:25:36.849Z,8.00
2022-11-15T14:28:12.603Z,8.00
2022-11-15T14:30:41.842Z,8.00
2022-11-15T14:33:35.816Z,8.00
2022-11-15T14:36:18.318Z,8.00
2022-11-15T14:38:47.047Z,7.70
2022-11-15T14:41:26.128Z,7.70
2022-11-15T14:43:54.542Z,7.80
2022-11-15T14:46:22.362Z,7.90
2022-11-15T14:48:50.037Z,7.90
2022-11-15T14:51:19.042Z,7.90
2022-11-15T14:53:48.091Z,7.80
2022-11-15T14:56:17.411Z,7.80
2022-11-15T14:58:45.363Z,7.80
2022-11-15T15:01:25.227Z,7.70
2022-11-15T15:03:56.993Z,7.70
2022-11-15T15:06:24.836Z,7.60
2022-11-15T15:08:53.133Z,7.50
2022-11-15T15:11:32.152Z,7.50
2022-11-15T15:14:02.414Z,7.40
2022-11-15T15:16:30.359Z,7.30
2022-11-15T15:18:58.103Z,7.20
2022-11-15T15:21:37.082Z,7.30
2022-11-15T15:24:06.018Z,7.30
2022-11-15T15:26:37.600Z,7.20
2022-11-15T15:29:05.838Z,7.10
2022-11-15T15:31:34.560Z,7.20
2022-11-15T15:34:02.882Z,7.10
2022-11-15T15:36:30.679Z,7.20
2022-11-15T15:38:58.734Z,7.20
2022-11-15T15:41:26.554Z,7.20
2022-11-15T15:43:54.315Z,7.10
2022-11-15T15:46:22.731Z,7.30
2022-11-15T15:48:50.558Z,7.20
2022-11-15T15:51:20.406Z,7.30
2022-11-15T15:53:49.595Z,7.30
2022-11-15T15:56:17.490Z,7.30
2022-11-15T15:58:45.611Z,7.30
2022-11-15T16:01:13.485Z,7.20
2022-11-15T16:03:41.771Z,7.20
2022-11-15T16:06:35.462Z,7.00
2022-11-15T16:09:20.649Z,6.90
2022-11-15T16:11:49.525Z,7.10
2022-11-15T16:14:17.327Z,7.10
2022-11-15T16:16:45.145Z,6.90
2022-11-15T16:19:13.553Z,7.00
2022-11-15T16:21:41.909Z,6.80
2022-11-15T16:24:09.770Z,6.70
2022-11-15T16:26:38.665Z,6.80
2022-11-15T16:29:08.044Z,6.60
2022-11-15T16:31:36.268Z,6.80
2022-11-15T16:34:04.546Z,6.90
2022-11-15T16:36:35.338Z,6.80
2022-11-15T16:39:06.623Z,6.80
2022-11-15T16:41:34.370Z,6.90
2022-11-15T16:44:02.252Z,7.00
2022-11-15T16:46:32.650Z,7.00
2022-11-15T16:49:00.441Z,6.90
2022-11-15T16:51:28.197Z,7.00
2022-11-15T16:53:55.768Z,7.10
2022-11-15T16:56:27.626Z,7.10
2022-11-15T16:59:00.064Z,7.10
2022-11-15T17:01:46.961Z,7.10
2022-11-15T17:04:16.657Z,7.10
2022-11-15T17:06:47.012Z,7.10
2022-11-15T17:09:19.491Z,7.10
2022-11-15T17:11:48.880Z,6.70
2022-11-15T17:14:17.460Z,6.60
2022-11-15T17:16:45.818Z,6.40
2022-11-15T17:19:16.015Z,6.40
2022-11-15T17:21:45.063Z,6.60
2022-11-15T17:24:13.593Z,6.80
2022-11-15T17:26:43.225Z,6.90
2022-11-15T17:29:11.792Z,7.00
2022-11-15T17:31:39.988Z,7.10
2022-11-15T17:34:09.409Z,7.20
2022-11-15T17:36:40.494Z,7.20
2022-11-15T17:39:09.792Z,7.10
2022-11-15T17:41:37.843Z,7.10
2022-11-15T17:44:05.950Z,7.20
2022-11-15T17:46:34.691Z,7.20
2022-11-15T17:49:02.729Z,7.20
2022-11-15T17:51:30.803Z,7.20
2022-11-15T17:53:59.097Z,7.00
2022-11-15T17:56:28.953Z,7.00
2022-11-15T17:59:05.721Z,7.00
2022-11-15T18:01:38.013Z,6.80
2022-11-15T18:04:09.472Z,6.70
2022-11-15T18:06:38.097Z,6.80
2022-11-15T18:09:07.514Z,6.70
2022-11-15T18:11:41.729Z,6.90
2022-11-15T18:14:14.305Z,6.60
2022-11-15T18:16:42.807Z,6.60
2022-11-15T18:19:14.353Z,6.50
2022-11-15T18:21:56.699Z,6.80
2022-11-15T18:24:28.563Z,6.90
2022-11-15T18:26:58.076Z,6.90
2022-11-15T18:29:26.632Z,6.90
2022-11-15T18:31:56.710Z,6.90
2022-11-15T18:34:27.599Z,6.90
2022-11-15T18:36:55.553Z,6.90
2022-11-15T18:39:23.569Z,6.90
2022-11-15T18:41:52.876Z,6.80
2022-11-15T18:44:22.569Z,6.90
2022-11-15T18:46:52.260Z,6.90
2022-11-15T18:49:20.745Z,7.00
2022-11-15T18:51:52.353Z,7.00
2022-11-15T18:54:20.602Z,6.90
2022-11-15T18:56:48.871Z,6.90
2022-11-15T18:59:18.078Z,6.90
2022-11-15T19:01:50.334Z,6.80
2022-11-15T19:04:20.232Z,6.70
2022-11-15T19:06:50.227Z,6.70
2022-11-15T19:09:19.856Z,6.80
2022-11-15T19:11:51.936Z,6.80
2022-11-15T19:14:24.605Z,6.80
2022-11-15T19:16:53.481Z,6.60
2022-11-15T19:19:27.920Z,6.70
2022-11-15T19:21:57.904Z,6.80
2022-11-15T19:24:27.563Z,6.90
2022-11-15T19:26:56.277Z,6.90
2022-11-15T19:29:24.721Z,7.00
2022-11-15T19:31:55.396Z,6.80
2022-11-15T19:34:24.028Z,6.70
2022-11-15T19:36:54.947Z,6.80
2022-11-15T19:39:23.219Z,6.80
2022-11-15T19:41:54.142Z,6.80
2022-11-15T19:44:23.462Z,6.90
2022-11-15T19:46:51.923Z,7.00
2022-11-15T19:49:19.988Z,7.10
2022-11-15T19:51:48.925Z,7.10
2022-11-15T19:54:17.592Z,7.10
2022-11-15T19:56:49.139Z,7.10
2022-11-15T19:59:18.485Z,7.10
2022-11-15T20:01:48.189Z,7.10
2022-11-15T20:04:17.823Z,7.10
2022-11-15T20:06:47.163Z,7.10
2022-11-15T20:09:17.560Z,7.10
2022-11-15T20:11:45.867Z,7.00
2022-11-15T20:14:14.328Z,7.00
2022-11-15T20:16:43.044Z,7.00
2022-11-15T20:19:12.725Z,7.00
2022-11-15T20:21:40.886Z,6.90
2022-11-15T20:24:10.656Z,6.90
2022-11-15T20:26:40.058Z,6.90
2022-11-15T20:29:10.305Z,6.90
2022-11-15T20:31:38.458Z,7.00
2022-11-15T20:34:07.015Z,7.10
2022-11-15T20:36:37.303Z,7.10
2022-11-15T20:39:07.084Z,7.10
2022-11-15T20:41:34.988Z,7.10
2022-11-15T20:44:03.842Z,7.10
2022-11-15T20:46:31.744Z,7.10
2022-11-15T20:49:01.081Z,7.00
2022-11-15T20:51:29.051Z,6.90
2022-11-15T20:54:00.283Z,7.00
2022-11-15T20:56:29.042Z,7.00
2022-11-15T20:58:57.132Z,6.90
2022-11-15T21:01:26.549Z,7.00
2022-11-15T21:03:58.916Z,7.00
2022-11-15T21:06:28.249Z,7.00
2022-11-15T21:09:15.487Z,7.10
2022-11-15T21:12:03.607Z,7.10
2022-11-15T21:14:34.222Z,7.10
2022-11-15T21:17:03.089Z,7.10
2022-11-15T21:19:35.538Z,7.10
2022-11-15T21:22:08.814Z,7.10
2022-11-15T21:24:36.871Z,7.10
2022-11-15T21:27:07.497Z,7.20
2022-11-15T21:29:41.119Z,6.80
2022-11-15T21:32:10.670Z,7.00
2022-11-15T21:34:38.917Z,7.00
2022-11-15T21:37:08.755Z,6.90
2022-11-15T21:39:42.781Z,6.90
2022-11-15T21:42:11.812Z,6.80
2022-11-15T21:44:50.662Z,6.90
2022-11-15T21:47:19.467Z,7.00
2022-11-15T21:49:48.770Z,7.10
2022-11-15T21:52:17.894Z,7.10
2022-11-15T21:54:46.804Z,7.10
2022-11-15T21:57:21.431Z,7.20
2022-11-15T22:00:12.167Z,7.20
2022-11-15T22:02:46.934Z,7.10
2022-11-15T22:05:27.751Z,7.00
2022-11-15T22:07:55.445Z,7.00
2022-11-15T22:10:23.023Z,7.10
2022-11-15T22:12:50.749Z,7.20
2022-11-15T22:15:18.438Z,7.10
2022-11-15T22:17:58.164Z,7.10
2022-11-15T22:20:44.161Z,7.20
2022-11-15T22:23:12.996Z,7.20
2022-11-15T22:25:41.034Z,7.20
2022-11-15T22:28:09.136Z,7.20
2022-11-15T22:30:37.151Z,7.10
2022-11-15T22:33:04.915Z,7.00
2022-11-15T22:35:35.179Z,6.90
2022-11-15T22:38:02.841Z,7.10
2022-11-15T22:40:31.205Z,7.10
2022-11-15T22:42:59.504Z,7.20
2022-11-15T22:45:27.145Z,7.20
2022-11-15T22:47:54.904Z,7.20
2022-11-15T22:50:23.767Z,7.20
2022-11-15T22:52:51.813Z,7.20
2022-11-15T22:55:19.458Z,7.10
2022-11-15T22:57:47.132Z,7.20
2022-11-15T23:00:16.512Z,7.00
2022-11-15T23:02:44.122Z,7.10
2022-11-15T23:05:12.260Z,7.10
2022-11-15T23:07:39.955Z,7.20
2022-11-15T23:10:26.843Z,7.20
2022-11-15T23:13:12.869Z,7.10
2022-11-15T23:15:59.247Z,7.10
2022-11-15T23:18:27.231Z,7.20
2022-11-15T23:20:55.466Z,7.20
2022-11-15T23:23:23.125Z,7.10
2022-11-15T23:25:59.370Z,7.20
2022-11-15T23:28:35.886Z,7.20
2022-11-15T23:31:25.486Z,7.10
2022-11-15T23:33:59.605Z,7.10
2022-11-15T23:36:28.666Z,7.10
2022-11-15T23:38:56.731Z,7.10
2022-11-15T23:41:24.944Z,7.10
2022-11-15T23:43:53.085Z,7.20
2022-11-15T23:46:21.655Z,7.10
2022-11-15T23:48:49.459Z,7.20
2022-11-15T23:51:17.336Z,7.00
2022-11-15T23:53:45.032Z,6.70
2022-11-15T23:56:17.736Z,6.70
2022-11-15T23:58:46.587Z,6.90
